sensor_id;sensor_type;location;lat;lon;timestamp;P1;durP1;ratioP1;P2;durP2;ratioP2
23113;SDS011;11726;50.122;8.832;2023-04-24T00:01:20;2.53;;;1.00;;
23113;SDS011;11726;50.122;8.832;2023-04-24T00:03:46;3.00;;;0.90;;
23113;SDS011;11726;50.122;8.832;2023-04-24T00:06:13;0.63;;;0.60;;
23113;SDS011;11726;50.122;8.832;2023-04-24T00:08:40;2.03;;;1.00;;
23113;SDS011;11726;50.122;8.832;2023-04-24T00:11:06;1.33;;;0.88;;
23113;SDS011;11726;50.122;8.832;2023-04-24T00:13:35;3.35;;;0.80;;
23113;SDS011;11726;50.122;8.832;2023-04-24T00:16:01;1.30;;;0.90;;
23113;SDS011;11726;50.122;8.832;2023-04-24T00:18:28;4.03;;;1.10;;
23113;SDS011;11726;50.122;8.832;2023-04-24T00:20:55;1.08;;;0.75;;
23113;SDS011;11726;50.122;8.832;2023-04-24T00:23:21;1.70;;;0.80;;
23113;SDS011;11726;50.122;8.832;2023-04-24T00:25:48;1.60;;;0.80;;
23113;SDS011;11726;50.122;8.832;2023-04-24T00:28:14;1.52;;;0.90;;
23113;SDS011;11726;50.122;8.832;2023-04-24T00:30:41;2.00;;;0.82;;
23113;SDS011;11726;50.122;8.832;2023-04-24T00:33:08;3.47;;;1.00;;
23113;SDS011;11726;50.122;8.832;2023-04-24T00:35:34;1.48;;;0.80;;
23113;SDS011;11726;50.122;8.832;2023-04-24T00:38:01;2.45;;;0.95;;
23113;SDS011;11726;50.122;8.832;2023-04-24T00:40:28;2.05;;;0.80;;
23113;SDS011;11726;50.122;8.832;2023-04-24T00:42:54;3.17;;;0.82;;
23113;SDS011;11726;50.122;8.832;2023-04-24T00:45:21;4.50;;;0.80;;
23113;SDS011;11726;50.122;8.832;2023-04-24T00:47:48;2.55;;;1.10;;
23113;SDS011;11726;50.122;8.832;2023-04-24T00:50:16;1.55;;;0.70;;
23113;SDS011;11726;50.122;8.832;2023-04-24T00:52:43;3.58;;;0.80;;
23113;SDS011;11726;50.122;8.832;2023-04-24T00:55:10;1.67;;;0.90;;
23113;SDS011;11726;50.122;8.832;2023-04-24T00:57:37;1.70;;;0.85;;
23113;SDS011;11726;50.122;8.832;2023-04-24T01:00:04;1.20;;;0.88;;
23113;SDS011;11726;50.122;8.832;2023-04-24T01:02:32;2.92;;;1.10;;
23113;SDS011;11726;50.122;8.832;2023-04-24T01:05:01;1.67;;;0.80;;
23113;SDS011;11726;50.122;8.832;2023-04-24T01:07:27;1.75;;;0.80;;
23113;SDS011;11726;50.122;8.832;2023-04-24T01:09:55;3.53;;;1.10;;
23113;SDS011;11726;50.122;8.832;2023-04-24T01:12:22;1.50;;;0.95;;
23113;SDS011;11726;50.122;8.832;2023-04-24T01:14:48;3.72;;;0.90;;
23113;SDS011;11726;50.122;8.832;2023-04-24T01:17:15;1.30;;;0.80;;
23113;SDS011;11726;50.122;8.832;2023-04-24T01:19:42;1.45;;;0.82;;
23113;SDS011;11726;50.122;8.832;2023-04-24T01:22:12;1.83;;;0.90;;
23113;SDS011;11726;50.122;8.832;2023-04-24T01:24:40;1.50;;;0.77;;
23113;SDS011;11726;50.122;8.832;2023-04-24T01:27:08;2.15;;;0.75;;
23113;SDS011;11726;50.122;8.832;2023-04-24T01:29:36;2.92;;;0.98;;
23113;SDS011;11726;50.122;8.832;2023-04-24T01:32:03;1.90;;;0.73;;
23113;SDS011;11726;50.122;8.832;2023-04-24T01:34:30;2.38;;;1.02;;
23113;SDS011;11726;50.122;8.832;2023-04-24T01:36:57;2.28;;;0.80;;
23113;SDS011;11726;50.122;8.832;2023-04-24T01:39:24;2.38;;;0.70;;
23113;SDS011;11726;50.122;8.832;2023-04-24T01:41:52;2.47;;;0.75;;
23113;SDS011;11726;50.122;8.832;2023-04-24T01:44:19;4.60;;;0.93;;
23113;SDS011;11726;50.122;8.832;2023-04-24T01:46:47;3.20;;;0.80;;
23113;SDS011;11726;50.122;8.832;2023-04-24T01:49:14;2.00;;;0.80;;
23113;SDS011;11726;50.122;8.832;2023-04-24T01:51:41;0.88;;;0.65;;
23113;SDS011;11726;50.122;8.832;2023-04-24T01:54:08;2.70;;;0.85;;
23113;SDS011;11726;50.122;8.832;2023-04-24T01:56:35;2.20;;;0.85;;
23113;SDS011;11726;50.122;8.832;2023-04-24T01:59:02;1.40;;;0.70;;
23113;SDS011;11726;50.122;8.832;2023-04-24T02:01:35;2.72;;;0.88;;
23113;SDS011;11726;50.122;8.832;2023-04-24T02:04:03;1.85;;;0.60;;
23113;SDS011;11726;50.122;8.832;2023-04-24T02:06:31;1.05;;;0.70;;
23113;SDS011;11726;50.122;8.832;2023-04-24T02:08:58;1.83;;;0.70;;
23113;SDS011;11726;50.122;8.832;2023-04-24T02:11:25;3.60;;;0.90;;
23113;SDS011;11726;50.122;8.832;2023-04-24T02:13:52;2.40;;;0.93;;
23113;SDS011;11726;50.122;8.832;2023-04-24T02:16:19;2.13;;;0.82;;
23113;SDS011;11726;50.122;8.832;2023-04-24T02:18:45;2.97;;;0.90;;
23113;SDS011;11726;50.122;8.832;2023-04-24T02:21:12;2.42;;;0.90;;
23113;SDS011;11726;50.122;8.832;2023-04-24T02:23:38;1.63;;;0.80;;
23113;SDS011;11726;50.122;8.832;2023-04-24T02:26:05;2.90;;;0.77;;
23113;SDS011;11726;50.122;8.832;2023-04-24T02:28:32;4.50;;;0.95;;
23113;SDS011;11726;50.122;8.832;2023-04-24T02:30:58;2.55;;;0.80;;
23113;SDS011;11726;50.122;8.832;2023-04-24T02:33:26;3.22;;;0.80;;
23113;SDS011;11726;50.122;8.832;2023-04-24T02:35:52;2.38;;;0.75;;
23113;SDS011;11726;50.122;8.832;2023-04-24T02:38:19;2.90;;;0.90;;
23113;SDS011;11726;50.122;8.832;2023-04-24T02:40:45;3.67;;;1.00;;
23113;SDS011;11726;50.122;8.832;2023-04-24T02:43:12;1.05;;;0.70;;
23113;SDS011;11726;50.122;8.832;2023-04-24T02:45:38;5.43;;;1.00;;
23113;SDS011;11726;50.122;8.832;2023-04-24T02:48:05;1.77;;;0.80;;
23113;SDS011;11726;50.122;8.832;2023-04-24T02:50:32;1.80;;;0.77;;
23113;SDS011;11726;50.122;8.832;2023-04-24T02:52:59;2.92;;;0.80;;
23113;SDS011;11726;50.122;8.832;2023-04-24T02:55:26;2.75;;;0.90;;
23113;SDS011;11726;50.122;8.832;2023-04-24T02:57:52;2.38;;;0.93;;
23113;SDS011;11726;50.122;8.832;2023-04-24T03:00:19;2.03;;;0.95;;
23113;SDS011;11726;50.122;8.832;2023-04-24T03:02:46;2.65;;;0.70;;
23113;SDS011;11726;50.122;8.832;2023-04-24T03:05:12;3.10;;;0.90;;
23113;SDS011;11726;50.122;8.832;2023-04-24T03:07:39;1.85;;;0.93;;
23113;SDS011;11726;50.122;8.832;2023-04-24T03:10:08;3.55;;;0.98;;
23113;SDS011;11726;50.122;8.832;2023-04-24T03:12:35;2.30;;;1.08;;
23113;SDS011;11726;50.122;8.832;2023-04-24T03:15:01;3.35;;;0.90;;
23113;SDS011;11726;50.122;8.832;2023-04-24T03:17:28;2.88;;;1.00;;
23113;SDS011;11726;50.122;8.832;2023-04-24T03:19:54;2.33;;;0.98;;
23113;SDS011;11726;50.122;8.832;2023-04-24T03:22:21;4.13;;;1.20;;
23113;SDS011;11726;50.122;8.832;2023-04-24T03:24:48;2.17;;;1.10;;
23113;SDS011;11726;50.122;8.832;2023-04-24T03:27:14;2.83;;;1.00;;
23113;SDS011;11726;50.122;8.832;2023-04-24T03:29:41;3.10;;;0.90;;
23113;SDS011;11726;50.122;8.832;2023-04-24T03:32:08;2.17;;;1.02;;
23113;SDS011;11726;50.122;8.832;2023-04-24T03:34:34;1.50;;;0.90;;
23113;SDS011;11726;50.122;8.832;2023-04-24T03:37:01;4.32;;;1.30;;
23113;SDS011;11726;50.122;8.832;2023-04-24T03:39:28;2.50;;;1.02;;
23113;SDS011;11726;50.122;8.832;2023-04-24T03:41:54;2.55;;;1.10;;
23113;SDS011;11726;50.122;8.832;2023-04-24T03:44:21;3.15;;;0.88;;
23113;SDS011;11726;50.122;8.832;2023-04-24T03:46:48;1.70;;;1.15;;
23113;SDS011;11726;50.122;8.832;2023-04-24T03:49:15;2.95;;;1.35;;
23113;SDS011;11726;50.122;8.832;2023-04-24T03:51:41;2.30;;;1.20;;
23113;SDS011;11726;50.122;8.832;2023-04-24T03:54:08;3.00;;;1.27;;
23113;SDS011;11726;50.122;8.832;2023-04-24T03:56:35;3.13;;;1.30;;
23113;SDS011;11726;50.122;8.832;2023-04-24T03:59:01;2.05;;;1.10;;
23113;SDS011;11726;50.122;8.832;2023-04-24T04:01:28;1.55;;;1.23;;
23113;SDS011;11726;50.122;8.832;2023-04-24T04:03:55;3.65;;;1.27;;
23113;SDS011;11726;50.122;8.832;2023-04-24T04:06:22;3.33;;;1.55;;
23113;SDS011;11726;50.122;8.832;2023-04-24T04:08:48;3.08;;;1.38;;
23113;SDS011;11726;50.122;8.832;2023-04-24T04:11:15;2.25;;;1.30;;
23113;SDS011;11726;50.122;8.832;2023-04-24T04:13:41;1.95;;;1.27;;
23113;SDS011;11726;50.122;8.832;2023-04-24T04:16:08;2.25;;;1.30;;
23113;SDS011;11726;50.122;8.832;2023-04-24T04:18:35;3.45;;;1.50;;
23113;SDS011;11726;50.122;8.832;2023-04-24T04:21:02;2.78;;;1.20;;
23113;SDS011;11726;50.122;8.832;2023-04-24T04:23:28;3.50;;;1.45;;
23113;SDS011;11726;50.122;8.832;2023-04-24T04:25:55;2.50;;;1.15;;
23113;SDS011;11726;50.122;8.832;2023-04-24T04:28:22;1.77;;;1.30;;
23113;SDS011;11726;50.122;8.832;2023-04-24T04:30:48;1.48;;;1.38;;
23113;SDS011;11726;50.122;8.832;2023-04-24T04:33:15;4.60;;;1.85;;
23113;SDS011;11726;50.122;8.832;2023-04-24T04:35:42;2.20;;;1.45;;
23113;SDS011;11726;50.122;8.832;2023-04-24T04:38:08;1.98;;;1.35;;
23113;SDS011;11726;50.122;8.832;2023-04-24T04:40:36;2.42;;;1.35;;
23113;SDS011;11726;50.122;8.832;2023-04-24T04:43:03;2.92;;;1.38;;
23113;SDS011;11726;50.122;8.832;2023-04-24T04:45:30;1.63;;;1.40;;
23113;SDS011;11726;50.122;8.832;2023-04-24T04:47:56;3.97;;;1.50;;
23113;SDS011;11726;50.122;8.832;2023-04-24T04:50:23;3.47;;;1.40;;
23113;SDS011;11726;50.122;8.832;2023-04-24T04:52:50;1.88;;;1.50;;
23113;SDS011;11726;50.122;8.832;2023-04-24T04:55:16;3.28;;;1.38;;
23113;SDS011;11726;50.122;8.832;2023-04-24T04:57:44;3.20;;;1.58;;
23113;SDS011;11726;50.122;8.832;2023-04-24T05:00:11;2.95;;;1.40;;
23113;SDS011;11726;50.122;8.832;2023-04-24T05:02:38;1.98;;;1.40;;
23113;SDS011;11726;50.122;8.832;2023-04-24T05:05:06;2.08;;;1.30;;
23113;SDS011;11726;50.122;8.832;2023-04-24T05:07:33;1.60;;;1.40;;
23113;SDS011;11726;50.122;8.832;2023-04-24T05:10:00;3.33;;;1.27;;
23113;SDS011;11726;50.122;8.832;2023-04-24T05:12:26;3.67;;;1.63;;
23113;SDS011;11726;50.122;8.832;2023-04-24T05:14:53;3.38;;;1.40;;
23113;SDS011;11726;50.122;8.832;2023-04-24T05:17:19;1.88;;;1.42;;
23113;SDS011;11726;50.122;8.832;2023-04-24T05:19:46;3.15;;;1.40;;
23113;SDS011;11726;50.122;8.832;2023-04-24T05:22:14;2.28;;;1.35;;
23113;SDS011;11726;50.122;8.832;2023-04-24T05:24:41;4.00;;;1.35;;
23113;SDS011;11726;50.122;8.832;2023-04-24T05:27:07;3.00;;;1.60;;
23113;SDS011;11726;50.122;8.832;2023-04-24T05:29:34;3.58;;;1.80;;
23113;SDS011;11726;50.122;8.832;2023-04-24T05:32:01;2.17;;;1.60;;
23113;SDS011;11726;50.122;8.832;2023-04-24T05:34:28;1.95;;;1.70;;
23113;SDS011;11726;50.122;8.832;2023-04-24T05:36:54;3.35;;;1.55;;
23113;SDS011;11726;50.122;8.832;2023-04-24T05:39:21;2.80;;;1.60;;
23113;SDS011;11726;50.122;8.832;2023-04-24T05:41:48;2.75;;;1.77;;
23113;SDS011;11726;50.122;8.832;2023-04-24T05:44:14;2.90;;;1.70;;
23113;SDS011;11726;50.122;8.832;2023-04-24T05:46:41;2.80;;;1.95;;
23113;SDS011;11726;50.122;8.832;2023-04-24T05:49:07;2.35;;;1.70;;
23113;SDS011;11726;50.122;8.832;2023-04-24T05:51:34;1.73;;;1.60;;
23113;SDS011;11726;50.122;8.832;2023-04-24T05:54:01;3.63;;;1.90;;
23113;SDS011;11726;50.122;8.832;2023-04-24T05:56:29;3.47;;;1.80;;
23113;SDS011;11726;50.122;8.832;2023-04-24T05:58:55;3.42;;;2.13;;
23113;SDS011;11726;50.122;8.832;2023-04-24T06:01:22;3.13;;;2.10;;
23113;SDS011;11726;50.122;8.832;2023-04-24T06:03:49;2.95;;;2.10;;
23113;SDS011;11726;50.122;8.832;2023-04-24T06:06:16;3.05;;;2.13;;
23113;SDS011;11726;50.122;8.832;2023-04-24T06:08:42;4.55;;;2.50;;
23113;SDS011;11726;50.122;8.832;2023-04-24T06:11:11;3.58;;;2.08;;
23113;SDS011;11726;50.122;8.832;2023-04-24T06:13:38;6.30;;;1.80;;
23113;SDS011;11726;50.122;8.832;2023-04-24T06:16:04;3.30;;;1.80;;
23113;SDS011;11726;50.122;8.832;2023-04-24T06:18:31;2.78;;;1.60;;
23113;SDS011;11726;50.122;8.832;2023-04-24T06:20:58;3.20;;;1.80;;
23113;SDS011;11726;50.122;8.832;2023-04-24T06:23:24;2.42;;;2.10;;
23113;SDS011;11726;50.122;8.832;2023-04-24T06:25:51;2.53;;;1.90;;
23113;SDS011;11726;50.122;8.832;2023-04-24T06:28:18;2.35;;;1.73;;
23113;SDS011;11726;50.122;8.832;2023-04-24T06:30:44;2.53;;;1.90;;
23113;SDS011;11726;50.122;8.832;2023-04-24T06:33:11;2.35;;;1.83;;
23113;SDS011;11726;50.122;8.832;2023-04-24T06:35:46;4.30;;;2.20;;
23113;SDS011;11726;50.122;8.832;2023-04-24T06:38:13;3.67;;;2.30;;
23113;SDS011;11726;50.122;8.832;2023-04-24T06:40:40;2.83;;;2.53;;
23113;SDS011;11726;50.122;8.832;2023-04-24T06:43:07;3.53;;;2.58;;
23113;SDS011;11726;50.122;8.832;2023-04-24T06:45:33;4.45;;;2.60;;
23113;SDS011;11726;50.122;8.832;2023-04-24T06:48:00;2.95;;;2.45;;
23113;SDS011;11726;50.122;8.832;2023-04-24T06:50:27;3.08;;;2.70;;
23113;SDS011;11726;50.122;8.832;2023-04-24T06:52:53;3.60;;;2.20;;
23113;SDS011;11726;50.122;8.832;2023-04-24T06:55:20;8.02;;;3.28;;
23113;SDS011;11726;50.122;8.832;2023-04-24T06:57:47;5.03;;;3.08;;
23113;SDS011;11726;50.122;8.832;2023-04-24T07:00:13;5.55;;;3.40;;
23113;SDS011;11726;50.122;8.832;2023-04-24T07:02:40;7.38;;;3.50;;
23113;SDS011;11726;50.122;8.832;2023-04-24T07:05:07;5.70;;;3.72;;
23113;SDS011;11726;50.122;8.832;2023-04-24T07:07:34;7.25;;;3.97;;
23113;SDS011;11726;50.122;8.832;2023-04-24T07:10:04;8.15;;;4.47;;
23113;SDS011;11726;50.122;8.832;2023-04-24T07:12:31;6.47;;;3.60;;
23113;SDS011;11726;50.122;8.832;2023-04-24T07:14:58;2.53;;;2.20;;
23113;SDS011;11726;50.122;8.832;2023-04-24T07:17:25;3.63;;;2.38;;
23113;SDS011;11726;50.122;8.832;2023-04-24T07:19:51;2.40;;;2.03;;
23113;SDS011;11726;50.122;8.832;2023-04-24T07:22:18;3.10;;;2.05;;
23113;SDS011;11726;50.122;8.832;2023-04-24T07:24:45;3.90;;;2.78;;
23113;SDS011;11726;50.122;8.832;2023-04-24T07:27:11;2.40;;;2.20;;
23113;SDS011;11726;50.122;8.832;2023-04-24T07:29:38;3.25;;;2.35;;
23113;SDS011;11726;50.122;8.832;2023-04-24T07:32:06;4.03;;;2.33;;
23113;SDS011;11726;50.122;8.832;2023-04-24T07:34:34;3.67;;;2.40;;
23113;SDS011;11726;50.122;8.832;2023-04-24T07:37:01;2.63;;;2.10;;
23113;SDS011;11726;50.122;8.832;2023-04-24T07:39:28;2.65;;;2.15;;
23113;SDS011;11726;50.122;8.832;2023-04-24T07:41:55;2.67;;;2.00;;
23113;SDS011;11726;50.122;8.832;2023-04-24T07:44:22;2.25;;;2.05;;
23113;SDS011;11726;50.122;8.832;2023-04-24T07:46:48;2.97;;;2.42;;
23113;SDS011;11726;50.122;8.832;2023-04-24T07:49:15;4.68;;;2.30;;
23113;SDS011;11726;50.122;8.832;2023-04-24T07:51:45;3.22;;;2.20;;
23113;SDS011;11726;50.122;8.832;2023-04-24T07:54:12;2.83;;;2.13;;
23113;SDS011;11726;50.122;8.832;2023-04-24T07:56:38;5.35;;;2.90;;
23113;SDS011;11726;50.122;8.832;2023-04-24T07:59:08;2.50;;;2.30;;
23113;SDS011;11726;50.122;8.832;2023-04-24T08:01:36;3.25;;;2.30;;
23113;SDS011;11726;50.122;8.832;2023-04-24T08:04:03;4.40;;;2.53;;
23113;SDS011;11726;50.122;8.832;2023-04-24T08:06:29;3.75;;;2.60;;
23113;SDS011;11726;50.122;8.832;2023-04-24T08:08:57;2.60;;;2.30;;
23113;SDS011;11726;50.122;8.832;2023-04-24T08:11:25;5.32;;;4.28;;
23113;SDS011;11726;50.122;8.832;2023-04-24T08:13:52;4.30;;;2.70;;
23113;SDS011;11726;50.122;8.832;2023-04-24T08:16:20;3.60;;;3.00;;
23113;SDS011;11726;50.122;8.832;2023-04-24T08:18:47;3.72;;;2.80;;
23113;SDS011;11726;50.122;8.832;2023-04-24T08:21:13;2.47;;;2.28;;
23113;SDS011;11726;50.122;8.832;2023-04-24T08:23:43;6.43;;;2.75;;
23113;SDS011;11726;50.122;8.832;2023-04-24T08:26:10;3.72;;;2.70;;
23113;SDS011;11726;50.122;8.832;2023-04-24T08:28:37;3.28;;;2.70;;
23113;SDS011;11726;50.122;8.832;2023-04-24T08:31:04;2.55;;;2.22;;
23113;SDS011;11726;50.122;8.832;2023-04-24T08:33:31;3.50;;;2.28;;
23113;SDS011;11726;50.122;8.832;2023-04-24T08:36:04;4.88;;;2.33;;
23113;SDS011;11726;50.122;8.832;2023-04-24T08:38:31;4.88;;;2.70;;
23113;SDS011;11726;50.122;8.832;2023-04-24T08:40:58;3.90;;;2.70;;
23113;SDS011;11726;50.122;8.832;2023-04-24T08:43:26;2.70;;;2.40;;
23113;SDS011;11726;50.122;8.832;2023-04-24T08:45:55;4.70;;;2.08;;
23113;SDS011;11726;50.122;8.832;2023-04-24T08:48:23;5.25;;;2.20;;
23113;SDS011;11726;50.122;8.832;2023-04-24T08:50:56;2.60;;;2.28;;
23113;SDS011;11726;50.122;8.832;2023-04-24T08:53:24;5.55;;;2.10;;
23113;SDS011;11726;50.122;8.832;2023-04-24T08:55:51;3.92;;;2.13;;
23113;SDS011;11726;50.122;8.832;2023-04-24T08:58:21;3.40;;;2.25;;
23113;SDS011;11726;50.122;8.832;2023-04-24T09:00:51;2.67;;;2.45;;
23113;SDS011;11726;50.122;8.832;2023-04-24T09:03:20;2.20;;;2.00;;
23113;SDS011;11726;50.122;8.832;2023-04-24T09:05:48;4.38;;;2.10;;
23113;SDS011;11726;50.122;8.832;2023-04-24T09:08:17;1.83;;;1.73;;
23113;SDS011;11726;50.122;8.832;2023-04-24T09:10:45;5.28;;;2.08;;
23113;SDS011;11726;50.122;8.832;2023-04-24T09:13:16;3.63;;;2.10;;
23113;SDS011;11726;50.122;8.832;2023-04-24T09:15:44;2.25;;;1.98;;
23113;SDS011;11726;50.122;8.832;2023-04-24T09:18:11;2.08;;;1.75;;
23113;SDS011;11726;50.122;8.832;2023-04-24T09:20:57;3.15;;;1.70;;
23113;SDS011;11726;50.122;8.832;2023-04-24T09:23:25;2.92;;;1.75;;
23113;SDS011;11726;50.122;8.832;2023-04-24T09:25:57;4.68;;;2.15;;
23113;SDS011;11726;50.122;8.832;2023-04-24T09:28:25;3.63;;;2.03;;
23113;SDS011;11726;50.122;8.832;2023-04-24T09:31:06;3.15;;;2.35;;
23113;SDS011;11726;50.122;8.832;2023-04-24T09:33:40;2.20;;;2.00;;
23113;SDS011;11726;50.122;8.832;2023-04-24T09:36:09;2.50;;;2.30;;
23113;SDS011;11726;50.122;8.832;2023-04-24T09:38:36;2.65;;;1.77;;
23113;SDS011;11726;50.122;8.832;2023-04-24T09:41:06;2.50;;;2.13;;
23113;SDS011;11726;50.122;8.832;2023-04-24T09:43:34;4.78;;;2.55;;
23113;SDS011;11726;50.122;8.832;2023-04-24T09:46:05;2.78;;;2.03;;
23113;SDS011;11726;50.122;8.832;2023-04-24T09:48:35;2.15;;;1.95;;
23113;SDS011;11726;50.122;8.832;2023-04-24T09:51:04;2.28;;;2.00;;
23113;SDS011;11726;50.122;8.832;2023-04-24T09:53:37;3.65;;;2.10;;
23113;SDS011;11726;50.122;8.832;2023-04-24T09:56:09;3.20;;;2.00;;
23113;SDS011;11726;50.122;8.832;2023-04-24T09:58:38;3.60;;;2.22;;
23113;SDS011;11726;50.122;8.832;2023-04-24T10:01:05;2.05;;;1.90;;
23113;SDS011;11726;50.122;8.832;2023-04-24T10:03:32;3.20;;;2.08;;
23113;SDS011;11726;50.122;8.832;2023-04-24T10:06:00;2.63;;;1.90;;
23113;SDS011;11726;50.122;8.832;2023-04-24T10:08:35;2.70;;;2.00;;
23113;SDS011;11726;50.122;8.832;2023-04-24T10:11:02;2.60;;;1.80;;
23113;SDS011;11726;50.122;8.832;2023-04-24T10:13:29;4.85;;;2.20;;
23113;SDS011;11726;50.122;8.832;2023-04-24T10:15:58;3.83;;;1.55;;
23113;SDS011;11726;50.122;8.832;2023-04-24T10:18:26;2.45;;;1.80;;
23113;SDS011;11726;50.122;8.832;2023-04-24T10:20:53;3.00;;;1.80;;
23113;SDS011;11726;50.122;8.832;2023-04-24T10:23:21;3.58;;;1.80;;
23113;SDS011;11726;50.122;8.832;2023-04-24T10:25:49;2.28;;;1.80;;
23113;SDS011;11726;50.122;8.832;2023-04-24T10:28:18;1.85;;;1.25;;
23113;SDS011;11726;50.122;8.832;2023-04-24T10:30:46;2.60;;;1.80;;
23113;SDS011;11726;50.122;8.832;2023-04-24T10:33:13;2.50;;;1.50;;
23113;SDS011;11726;50.122;8.832;2023-04-24T10:35:42;4.72;;;1.75;;
23113;SDS011;11726;50.122;8.832;2023-04-24T10:38:12;2.58;;;1.50;;
23113;SDS011;11726;50.122;8.832;2023-04-24T10:40:40;1.52;;;1.38;;
23113;SDS011;11726;50.122;8.832;2023-04-24T10:43:08;2.15;;;1.25;;
23113;SDS011;11726;50.122;8.832;2023-04-24T10:45:39;3.10;;;1.80;;
23113;SDS011;11726;50.122;8.832;2023-04-24T10:48:07;1.85;;;1.65;;
23113;SDS011;11726;50.122;8.832;2023-04-24T10:50:47;2.00;;;1.80;;
23113;SDS011;11726;50.122;8.832;2023-04-24T10:53:26;2.28;;;1.90;;
23113;SDS011;11726;50.122;8.832;2023-04-24T10:58:41;3.28;;;2.00;;
23113;SDS011;11726;50.122;8.832;2023-04-24T11:01:23;2.00;;;1.80;;
23113;SDS011;11726;50.122;8.832;2023-04-24T11:03:55;2.28;;;1.90;;
23113;SDS011;11726;50.122;8.832;2023-04-24T11:06:35;4.22;;;2.28;;
23113;SDS011;11726;50.122;8.832;2023-04-24T11:09:09;4.20;;;2.00;;
23113;SDS011;11726;50.122;8.832;2023-04-24T11:11:38;3.85;;;2.03;;
23113;SDS011;11726;50.122;8.832;2023-04-24T11:14:14;1.75;;;1.65;;
23113;SDS011;11726;50.122;8.832;2023-04-24T11:21:43;4.45;;;1.60;;
23113;SDS011;11726;50.122;8.832;2023-04-24T11:26:55;2.22;;;1.60;;
23113;SDS011;11726;50.122;8.832;2023-04-24T11:29:37;1.58;;;1.40;;
23113;SDS011;11726;50.122;8.832;2023-04-24T11:32:19;3.15;;;1.40;;
23113;SDS011;11726;50.122;8.832;2023-04-24T11:37:22;2.65;;;1.30;;
23113;SDS011;11726;50.122;8.832;2023-04-24T11:39:51;3.70;;;2.80;;
23113;SDS011;11726;50.122;8.832;2023-04-24T11:42:22;2.33;;;1.77;;
23113;SDS011;11726;50.122;8.832;2023-04-24T11:44:49;2.03;;;1.50;;
23113;SDS011;11726;50.122;8.832;2023-04-24T11:47:18;2.35;;;1.60;;
23113;SDS011;11726;50.122;8.832;2023-04-24T11:49:45;2.10;;;1.45;;
23113;SDS011;11726;50.122;8.832;2023-04-24T11:52:15;2.78;;;2.00;;
23113;SDS011;11726;50.122;8.832;2023-04-24T11:54:49;1.70;;;1.52;;
23113;SDS011;11726;50.122;8.832;2023-04-24T11:57:19;2.55;;;2.35;;
23113;SDS011;11726;50.122;8.832;2023-04-24T11:59:48;3.08;;;2.10;;
23113;SDS011;11726;50.122;8.832;2023-04-24T12:04:52;2.25;;;1.73;;
23113;SDS011;11726;50.122;8.832;2023-04-24T12:07:20;2.42;;;1.50;;
23113;SDS011;11726;50.122;8.832;2023-04-24T12:09:55;1.35;;;1.15;;
23113;SDS011;11726;50.122;8.832;2023-04-24T12:12:25;1.95;;;1.20;;
23113;SDS011;11726;50.122;8.832;2023-04-24T12:14:54;2.45;;;1.55;;
23113;SDS011;11726;50.122;8.832;2023-04-24T12:17:25;1.40;;;1.30;;
23113;SDS011;11726;50.122;8.832;2023-04-24T12:19:58;2.30;;;1.38;;
23113;SDS011;11726;50.122;8.832;2023-04-24T12:25:17;1.30;;;1.20;;
23113;SDS011;11726;50.122;8.832;2023-04-24T12:27:45;1.40;;;1.30;;
23113;SDS011;11726;50.122;8.832;2023-04-24T12:30:13;1.58;;;1.45;;
23113;SDS011;11726;50.122;8.832;2023-04-24T12:32:45;2.47;;;1.15;;
23113;SDS011;11726;50.122;8.832;2023-04-24T12:35:13;1.38;;;1.23;;
23113;SDS011;11726;50.122;8.832;2023-04-24T12:37:45;2.97;;;1.50;;
23113;SDS011;11726;50.122;8.832;2023-04-24T12:40:13;1.55;;;1.20;;
23113;SDS011;11726;50.122;8.832;2023-04-24T12:42:47;1.83;;;1.63;;
23113;SDS011;11726;50.122;8.832;2023-04-24T12:45:16;1.60;;;1.50;;
23113;SDS011;11726;50.122;8.832;2023-04-24T12:47:44;1.85;;;1.40;;
23113;SDS011;11726;50.122;8.832;2023-04-24T12:50:12;2.75;;;1.60;;
23113;SDS011;11726;50.122;8.832;2023-04-24T12:52:41;2.75;;;1.80;;
23113;SDS011;11726;50.122;8.832;2023-04-24T12:55:09;1.70;;;1.45;;
23113;SDS011;11726;50.122;8.832;2023-04-24T12:57:37;2.08;;;1.58;;
23113;SDS011;11726;50.122;8.832;2023-04-24T13:00:06;2.38;;;1.60;;
23113;SDS011;11726;50.122;8.832;2023-04-24T13:02:34;3.05;;;1.80;;
23113;SDS011;11726;50.122;8.832;2023-04-24T13:05:01;2.55;;;2.00;;
23113;SDS011;11726;50.122;8.832;2023-04-24T13:07:28;3.33;;;2.53;;
23113;SDS011;11726;50.122;8.832;2023-04-24T13:09:55;5.50;;;2.10;;
23113;SDS011;11726;50.122;8.832;2023-04-24T13:12:23;3.58;;;2.80;;
23113;SDS011;11726;50.122;8.832;2023-04-24T13:14:51;2.85;;;2.50;;
23113;SDS011;11726;50.122;8.832;2023-04-24T13:17:18;4.68;;;2.90;;
23113;SDS011;11726;50.122;8.832;2023-04-24T13:19:44;4.53;;;3.17;;
23113;SDS011;11726;50.122;8.832;2023-04-24T13:22:12;4.70;;;3.10;;
23113;SDS011;11726;50.122;8.832;2023-04-24T13:24:39;5.22;;;3.72;;
23113;SDS011;11726;50.122;8.832;2023-04-24T13:27:07;5.45;;;4.00;;
23113;SDS011;11726;50.122;8.832;2023-04-24T13:29:35;4.30;;;3.50;;
23113;SDS011;11726;50.122;8.832;2023-04-24T13:32:03;4.65;;;3.58;;
23113;SDS011;11726;50.122;8.832;2023-04-24T13:34:29;5.80;;;3.47;;
23113;SDS011;11726;50.122;8.832;2023-04-24T13:36:56;5.22;;;3.38;;
23113;SDS011;11726;50.122;8.832;2023-04-24T13:39:24;6.68;;;4.07;;
23113;SDS011;11726;50.122;8.832;2023-04-24T13:41:52;5.03;;;4.13;;
23113;SDS011;11726;50.122;8.832;2023-04-24T13:44:19;5.45;;;3.50;;
23113;SDS011;11726;50.122;8.832;2023-04-24T13:46:47;2.97;;;2.78;;
23113;SDS011;11726;50.122;8.832;2023-04-24T13:49:14;5.05;;;3.28;;
23113;SDS011;11726;50.122;8.832;2023-04-24T13:51:41;3.72;;;2.72;;
23113;SDS011;11726;50.122;8.832;2023-04-24T13:54:09;5.50;;;3.05;;
23113;SDS011;11726;50.122;8.832;2023-04-24T13:56:35;4.32;;;2.70;;
23113;SDS011;11726;50.122;8.832;2023-04-24T13:59:02;5.03;;;2.25;;
23113;SDS011;11726;50.122;8.832;2023-04-24T14:01:29;2.45;;;2.25;;
23113;SDS011;11726;50.122;8.832;2023-04-24T14:03:55;4.65;;;2.55;;
23113;SDS011;11726;50.122;8.832;2023-04-24T14:06:23;3.90;;;2.60;;
23113;SDS011;11726;50.122;8.832;2023-04-24T14:08:49;6.43;;;3.33;;
23113;SDS011;11726;50.122;8.832;2023-04-24T14:11:16;4.13;;;3.08;;
23113;SDS011;11726;50.122;8.832;2023-04-24T14:13:44;3.28;;;2.88;;
23113;SDS011;11726;50.122;8.832;2023-04-24T14:16:12;6.90;;;3.70;;
23113;SDS011;11726;50.122;8.832;2023-04-24T14:18:39;4.50;;;2.90;;
23113;SDS011;11726;50.122;8.832;2023-04-24T14:21:06;5.10;;;3.40;;
23113;SDS011;11726;50.122;8.832;2023-04-24T14:23:32;4.82;;;3.60;;
23113;SDS011;11726;50.122;8.832;2023-04-24T14:25:59;4.40;;;3.28;;
23113;SDS011;11726;50.122;8.832;2023-04-24T14:28:26;4.50;;;2.90;;
23113;SDS011;11726;50.122;8.832;2023-04-24T14:30:52;4.55;;;2.83;;
23113;SDS011;11726;50.122;8.832;2023-04-24T14:33:19;5.15;;;2.92;;
23113;SDS011;11726;50.122;8.832;2023-04-24T14:35:46;5.43;;;3.40;;
23113;SDS011;11726;50.122;8.832;2023-04-24T14:38:14;4.53;;;2.85;;
23113;SDS011;11726;50.122;8.832;2023-04-24T14:40:41;4.45;;;2.88;;
23113;SDS011;11726;50.122;8.832;2023-04-24T14:43:11;4.10;;;3.03;;
23113;SDS011;11726;50.122;8.832;2023-04-24T14:45:37;3.55;;;2.67;;
23113;SDS011;11726;50.122;8.832;2023-04-24T14:48:06;3.78;;;2.78;;
23113;SDS011;11726;50.122;8.832;2023-04-24T14:50:35;3.95;;;2.78;;
23113;SDS011;11726;50.122;8.832;2023-04-24T14:53:02;6.90;;;2.95;;
23113;SDS011;11726;50.122;8.832;2023-04-24T14:55:29;4.38;;;2.97;;
23113;SDS011;11726;50.122;8.832;2023-04-24T14:57:55;4.35;;;3.33;;
23113;SDS011;11726;50.122;8.832;2023-04-24T15:00:22;4.03;;;3.08;;
23113;SDS011;11726;50.122;8.832;2023-04-24T15:02:50;4.78;;;3.42;;
23113;SDS011;11726;50.122;8.832;2023-04-24T15:05:17;5.15;;;3.03;;
23113;SDS011;11726;50.122;8.832;2023-04-24T15:07:44;7.57;;;4.15;;
23113;SDS011;11726;50.122;8.832;2023-04-24T15:10:11;4.25;;;3.28;;